createdAt,value
2022-08-04T00:00:52.404Z,98811.63
2022-08-04T00:03:51.121Z,98818.28
2022-08-04T00:07:44.066Z,98813.97
2022-08-04T00:10:28.895Z,98813.63
2022-08-04T00:13:16.679Z,98814.06
2022-08-04T00:16:06.753Z,98806.16
2022-08-04T00:19:03.425Z,98815.31
2022-08-04T00:21:59.931Z,98815.31
2022-08-04T00:24:46.317Z,98810.97
2022-08-04T00:27:33.033Z,98818.88
2022-08-04T00:30:21.902Z,98819.66
2022-08-04T00:33:08.660Z,98818.88
2022-08-04T00:35:54.953Z,98813.31
2022-08-04T00:38:44.458Z,98822.13
2022-08-04T00:42:07.960Z,98814.53
2022-08-04T00:44:56.550Z,98817.31
2022-08-04T00:47:54.787Z,98816.53
2022-08-04T00:51:11.907Z,98818.56
2022-08-04T00:54:07.501Z,98816.53
2022-08-04T00:57:33.674Z,98815.75
2022-08-04T01:00:20.536Z,98822.59
2022-08-04T01:03:20.796Z,98817.00
2022-08-04T01:06:29.667Z,98817.78
2022-08-04T01:09:24.118Z,98814.66
2022-08-04T01:12:12.687Z,98819.16
2022-08-04T01:15:53.837Z,98814.44
2022-08-04T01:18:54.974Z,98820.94
2022-08-04T01:21:55.662Z,98823.28
2022-08-04T01:25:16.304Z,98812.56
2022-08-04T01:28:36.576Z,98809.78
2022-08-04T01:31:35.182Z,98814.72
2022-08-04T01:34:23.165Z,98812.34
2022-08-04T01:37:50.604Z,98819.19
2022-08-04T01:40:38.446Z,98818.06
2022-08-04T01:43:24.412Z,98816.50
2022-08-04T01:46:15.061Z,98814.19
2022-08-04T01:49:02.861Z,98816.19
2022-08-04T01:51:53.633Z,98814.19
2022-08-04T01:54:42.533Z,98811.84
2022-08-04T01:57:46.159Z,98809.06
2022-08-04T02:00:31.807Z,98805.94
2022-08-04T02:03:17.306Z,98807.50
2022-08-04T02:06:19.201Z,98805.56
2022-08-04T02:09:30.839Z,98806.47
2022-08-04T02:12:52.949Z,98804.91
2022-08-04T02:16:02.803Z,98799.34
2022-08-04T02:19:25.262Z,98803.03
2022-08-04T02:22:17.443Z,98797.91
2022-08-04T02:25:11.305Z,98797.13
2022-08-04T02:28:13.259Z,98792.78
2022-08-04T02:31:15.767Z,98795.59
2022-08-04T02:34:10.113Z,98791.69
2022-08-04T02:36:56.137Z,98787.78
2022-08-04T02:39:49.154Z,98790.13
2022-08-04T02:42:35.445Z,98784.97
2022-08-04T02:45:22.999Z,98782.34
2022-08-04T02:48:29.858Z,98781.56
2022-08-04T02:51:18.099Z,98784.66
2022-08-04T02:54:06.212Z,98770.41
2022-08-04T02:56:55.873Z,98777.97
2022-08-04T03:00:00.813Z,98775.19
2022-08-04T03:02:48.941Z,98779.97
2022-08-04T03:06:01.558Z,98778.44
2022-08-04T03:09:25.173Z,98779.97
2022-08-04T03:12:58.835Z,98784.66
2022-08-04T03:15:58.373Z,98785.91
2022-08-04T03:19:28.499Z,98786.34
2022-08-04T03:23:06.206Z,98785.56
2022-08-04T03:26:01.380Z,98783.22
2022-08-04T03:29:35.976Z,98779.66
2022-08-04T03:32:56.055Z,98784.91
2022-08-04T03:35:50.692Z,98783.34
2022-08-04T03:38:59.029Z,98777.78
2022-08-04T03:42:04.330Z,98793.25
2022-08-04T03:45:23.118Z,98795.28
2022-08-04T03:48:52.612Z,98796.06
2022-08-04T03:52:24.611Z,98793.41
2022-08-04T03:55:36.797Z,98792.59
2022-08-04T03:58:59.897Z,98795.38
2022-08-04T04:02:01.925Z,98792.28
2022-08-04T04:05:20.791Z,98788.25
2022-08-04T04:08:13.757Z,98794.19
2022-08-04T04:11:16.684Z,98793.25
2022-08-04T04:14:01.874Z,98792.38
2022-08-04T04:16:56.097Z,98789.13
2022-08-04T04:20:10.883Z,98791.81
2022-08-04T04:23:11.048Z,98787.00
2022-08-04T04:26:21.469Z,98791.81
2022-08-04T04:29:40.008Z,98795.81
2022-08-04T04:32:34.385Z,98799.72
2022-08-04T04:35:45.779Z,98800.16
2022-08-04T04:38:49.836Z,98802.97
2022-08-04T04:42:06.509Z,98800.50
2022-08-04T04:45:34.984Z,98806.75
2022-08-04T04:48:38.964Z,98803.94
2022-08-04T04:51:40.422Z,98797.91
2022-08-04T04:54:33.183Z,98798.69
2022-08-04T04:57:53.051Z,98800.56
2022-08-04T05:01:01.841Z,98812.84
2022-08-04T05:08:44.889Z,98800.91
2022-08-04T05:11:45.848Z,98804.47
2022-08-04T05:14:42.007Z,98804.91
2022-08-04T05:17:52.994Z,98797.78
2022-08-04T05:20:45.829Z,98799.47
2022-08-04T05:23:36.939Z,98795.59
2022-08-04T05:26:29.518Z,98795.59
2022-08-04T05:29:35.116Z,98792.78
2022-08-04T05:32:31.144Z,98794.78
2022-08-04T05:35:37.337Z,98796.34
2022-08-04T05:38:38.466Z,98795.25
2022-08-04T05:41:32.353Z,98797.28
2022-08-04T05:44:32.419Z,98786.56
2022-08-04T05:47:21.487Z,98794.91
2022-08-04T05:50:08.650Z,98794.91
2022-08-04T05:53:01.310Z,98792.56
2022-08-04T05:55:58.850Z,98793.34
2022-08-04T05:58:46.453Z,98792.91
2022-08-04T06:01:34.321Z,98790.56
2022-08-04T06:04:41.411Z,98792.13
2022-08-04T06:07:27.463Z,98792.13
2022-08-04T06:10:12.919Z,98792.56
2022-08-04T06:13:09.518Z,98796.47
2022-08-04T06:16:18.099Z,98799.72
2022-08-04T06:20:02.665Z,98795.38
2022-08-04T06:22:24.446Z,98795.81
2022-08-04T06:25:15.513Z,98795.03
2022-08-04T06:28:02.101Z,98792.72
2022-08-04T06:30:49.918Z,98805.41
2022-08-04T06:33:54.664Z,98803.41
2022-08-04T06:36:42.669Z,98805.41
2022-08-04T06:39:32.029Z,98806.66
2022-08-04T06:42:22.663Z,98802.63
2022-08-04T06:45:12.518Z,98804.50
2022-08-04T06:47:59.979Z,98809.31
2022-08-04T06:51:24.795Z,98802.03
2022-08-04T06:53:55.570Z,98808.44
2022-08-04T06:56:43.364Z,98807.63
2022-08-04T06:59:29.370Z,98800.81
2022-08-04T07:02:20.544Z,98796.47
2022-08-04T07:05:10.320Z,98796.78
2022-08-04T07:07:58.445Z,98795.25
2022-08-04T07:10:45.414Z,98792.47
2022-08-04T07:13:32.724Z,98798.38
2022-08-04T07:16:20.750Z,98796.47
2022-08-04T07:19:18.894Z,98795.69
2022-08-04T07:22:16.263Z,98782.09
2022-08-04T07:25:12.884Z,98783.63
2022-08-04T07:27:58.459Z,98788.75
2022-08-04T07:30:44.966Z,98778.84
2022-08-04T07:33:30.716Z,98782.75
2022-08-04T07:36:16.122Z,98778.28
2022-08-04T07:39:01.265Z,98778.59
2022-08-04T07:41:49.060Z,98773.78
2022-08-04T07:44:35.714Z,98776.13
2022-08-04T07:47:24.960Z,98767.78
2022-08-04T07:50:12.512Z,98774.47
2022-08-04T07:53:15.582Z,98776.81
2022-08-04T07:56:03.920Z,98774.34
2022-08-04T07:58:49.829Z,98774.66
2022-08-04T08:01:37.110Z,98769.88
2022-08-04T08:04:22.849Z,98775.78
2022-08-04T08:07:08.667Z,98771.31
2022-08-04T08:09:54.437Z,98771.31
2022-08-04T08:12:51.277Z,98770.06
2022-08-04T08:15:38.663Z,98767.28
2022-08-04T08:18:25.096Z,98766.84
2022-08-04T08:21:10.744Z,98761.59
2022-08-04T08:23:57.642Z,98764.22
2022-08-04T08:26:43.714Z,98759.44
2022-08-04T08:29:29.573Z,98752.28
2022-08-04T08:32:16.112Z,98756.19
2022-08-04T08:35:02.261Z,98760.06
2022-08-04T08:37:58.608Z,98754.38
2022-08-04T08:41:06.548Z,98755.81
2022-08-04T08:44:19.196Z,98747.31
2022-08-04T08:47:15.812Z,98757.22
2022-08-04T08:50:18.210Z,98749.63
2022-08-04T08:53:25.170Z,98755.69
2022-08-04T08:56:36.701Z,98762.81
2022-08-04T08:59:46.940Z,98761.00
2022-08-04T09:02:35.535Z,98756.50
2022-08-04T09:05:21.033Z,98761.75
2022-08-04T09:08:31.146Z,98766.41
2022-08-04T09:11:23.840Z,98765.66
2022-08-04T09:14:15.784Z,98761.00
2022-08-04T09:17:05.498Z,98770.78
2022-08-04T09:20:08.252Z,98766.31
2022-08-04T09:23:16.943Z,98761.81
2022-08-04T09:26:23.897Z,98760.72
2022-08-04T09:29:41.548Z,98754.38
2022-08-04T09:32:39.101Z,98756.22
2022-08-04T09:35:58.721Z,98754.53
2022-08-04T09:39:22.915Z,98755.78
2022-08-04T09:42:33.859Z,98758.25
2022-08-04T09:45:42.573Z,98751.91
2022-08-04T09:48:36.040Z,98748.78
2022-08-04T09:51:57.403Z,98751.56
2022-08-04T09:55:15.976Z,98751.91
2022-08-04T09:58:15.186Z,98744.28
2022-08-04T10:01:04.236Z,98750.31
2022-08-04T10:03:53.242Z,98743.97
2022-08-04T10:07:04.582Z,98746.44
2022-08-04T10:10:26.846Z,98747.22
2022-08-04T10:13:26.112Z,98748.78
2022-08-04T10:16:30.235Z,98744.41
2022-08-04T10:19:32.066Z,98740.84
2022-08-04T10:22:55.405Z,98745.66
2022-08-04T10:26:15.865Z,98747.22
2022-08-04T10:29:31.081Z,98749.22
2022-08-04T10:32:29.569Z,98747.22
2022-08-04T10:35:18.565Z,98748.00
2022-08-04T10:38:03.772Z,98738.06
2022-08-04T10:41:18.368Z,98736.53
2022-08-04T10:44:26.412Z,98735.28
2022-08-04T10:47:18.774Z,98722.56
2022-08-04T10:50:09.172Z,98737.28
2022-08-04T10:53:04.150Z,98729.69
2022-08-04T10:56:08.117Z,98725.34
2022-08-04T10:58:57.063Z,98722.09
2022-08-04T11:01:59.671Z,98726.44
2022-08-04T11:04:58.708Z,98731.25
2022-08-04T11:07:47.542Z,98726.28
2022-08-04T11:10:43.296Z,98725.19
2022-08-04T11:13:47.051Z,98721.50
2022-08-04T11:16:53.292Z,98715.13
2022-08-04T11:19:53.513Z,98717.91
2022-08-04T11:22:58.756Z,98714.22
2022-08-04T11:25:57.229Z,98701.38
2022-08-04T11:29:03.688Z,98710.38
2022-08-04T11:31:52.059Z,98711.94
2022-08-04T11:34:44.100Z,98712.84
2022-08-04T11:38:02.267Z,98710.06
2022-08-04T11:41:02.017Z,98713.94
2022-08-04T11:44:04.210Z,98712.41
2022-08-04T11:46:54.063Z,98717.66
2022-08-04T11:49:58.082Z,98716.41
2022-08-04T11:52:45.245Z,98709.63
2022-08-04T11:55:32.529Z,98704.31
2022-08-04T11:58:38.483Z,98702.66
2022-08-04T12:01:49.161Z,98706.41
2022-08-04T12:04:47.601Z,98699.94
2022-08-04T12:07:59.091Z,98703.81
2022-08-04T12:11:16.049Z,98699.63
2022-08-04T12:14:10.045Z,98689.88
2022-08-04T12:17:01.559Z,98695.34
2022-08-04T12:20:04.514Z,98692.06
2022-08-04T12:22:52.115Z,98694.84
2022-08-04T12:25:44.973Z,98686.63
2022-08-04T12:31:55.282Z,98690.66
2022-08-04T12:34:43.235Z,98681.38
2022-08-04T12:37:34.488Z,98687.25
2022-08-04T12:40:29.868Z,98687.13
2022-08-04T12:43:26.488Z,98684.63
2022-08-04T12:46:33.105Z,98675.31
2022-08-04T12:49:21.653Z,98670.84
2022-08-04T12:52:09.645Z,98666.66
2022-08-04T12:54:57.799Z,98667.13
2022-08-04T12:57:44.808Z,98662.63
2022-08-04T13:00:40.802Z,98660.47
2022-08-04T13:03:38.900Z,98655.66
2022-08-04T13:06:30.539Z,98657.56
2022-08-04T13:09:19.679Z,98661.13
2022-08-04T13:12:16.625Z,98649.63
2022-08-04T13:15:18.076Z,98654.75
2022-08-04T13:18:24.993Z,98644.16
2022-08-04T13:21:20.025Z,98641.84
2022-08-04T13:24:21.247Z,98645.88
2022-08-04T13:27:20.267Z,98640.59
2022-08-04T13:30:06.771Z,98637.97
2022-08-04T13:32:59.091Z,98641.22
2022-08-04T13:35:55.168Z,98634.88
2022-08-04T13:38:47.980Z,98639.38
2022-08-04T13:41:36.218Z,98631.59
2022-08-04T13:44:33.407Z,98628.47
2022-08-04T13:47:47.073Z,98631.59
2022-08-04T13:50:33.515Z,98630.50
2022-08-04T13:53:22.040Z,98631.00
2022-08-04T13:56:10.694Z,98629.63
2022-08-04T13:59:01.385Z,98617.34
2022-08-04T14:01:59.111Z,98625.41
2022-08-04T14:04:54.660Z,98615.66
2022-08-04T14:07:52.671Z,98609.28
2022-08-04T14:10:40.217Z,98618.44
2022-08-04T14:13:41.459Z,98601.34
2022-08-04T14:16:27.757Z,98602.44
2022-08-04T14:19:13.627Z,98588.44
2022-08-04T14:21:59.525Z,98595.31
2022-08-04T14:25:16.746Z,98592.00
2022-08-04T14:28:02.891Z,98598.84
2022-08-04T14:30:48.759Z,98586.41
2022-08-04T14:34:03.934Z,98587.19
2022-08-04T14:37:17.781Z,98582.22
2022-08-04T14:40:17.853Z,98581.41
2022-08-04T14:43:02.704Z,98585.31
2022-08-04T14:45:55.417Z,98583.91
2022-08-04T14:49:02.392Z,98583.28
2022-08-04T14:51:59.598Z,98574.41
2022-08-04T14:54:45.312Z,98574.91
2022-08-04T14:57:30.612Z,98574.13
2022-08-04T15:00:30.615Z,98572.56
2022-08-04T15:03:19.369Z,98575.66
2022-08-04T15:06:10.880Z,98572.09
2022-08-04T15:09:02.387Z,98568.22
2022-08-04T15:11:47.583Z,98573.50
2022-08-04T15:14:36.668Z,98565.91
2022-08-04T15:17:30.220Z,98575.66
2022-08-04T15:20:17.566Z,98571.03
2022-08-04T15:23:10.444Z,98561.84
2022-08-04T15:26:02.392Z,98564.06
2022-08-04T15:28:53.362Z,98561.84
2022-08-04T15:32:06.695Z,98563.88
2022-08-04T15:34:53.212Z,98563.25
2022-08-04T15:38:00.519Z,98564.97
2022-08-04T15:40:55.956Z,98568.41
2022-08-04T15:43:59.114Z,98562.34
2022-08-04T15:46:47.827Z,98557.84
2022-08-04T15:49:33.783Z,98558.00
2022-08-04T15:52:19.393Z,98554.56
2022-08-04T15:55:32.554Z,98554.09
2022-08-04T15:58:22.006Z,98554.41
2022-08-04T16:01:07.874Z,98552.25
2022-08-04T16:03:59.803Z,98547.56
2022-08-04T16:06:46.492Z,98548.16
2022-08-04T16:09:45.239Z,98552.03
2022-08-04T16:12:55.422Z,98549.25
2022-08-04T16:15:53.565Z,98541.66
2022-08-04T16:18:41.185Z,98541.03
2022-08-04T16:21:26.665Z,98550.97
2022-08-04T16:24:36.452Z,98541.16
2022-08-04T16:27:35.996Z,98542.41
2022-08-04T16:30:21.643Z,98543.66
2022-08-04T16:33:09.244Z,98541.50
2022-08-04T16:36:07.831Z,98546.94
2022-08-04T16:39:04.909Z,98537.16
2022-08-04T16:41:50.531Z,98533.41
2022-08-04T16:44:52.701Z,98541.50
2022-08-04T16:47:48.018Z,98543.06
2022-08-04T16:50:44.779Z,98533.72
2022-08-04T16:54:02.962Z,98534.19
2022-08-04T16:56:50.275Z,98531.56
2022-08-04T16:59:36.151Z,98528.78
2022-08-04T17:02:26.297Z,98527.19
2022-08-04T17:05:38.385Z,98534.38
2022-08-04T17:08:29.974Z,98530.31
2022-08-04T17:11:17.135Z,98533.72
2022-08-04T17:14:05.780Z,98525.97
2022-08-04T17:16:53.301Z,98518.34
2022-08-04T17:19:38.976Z,98521.75
2022-08-04T17:22:25.367Z,98521.16
2022-08-04T17:25:11.562Z,98524.09
2022-08-04T17:28:19.475Z,98524.91
2022-08-04T17:31:10.118Z,98522.88
2022-08-04T17:33:58.264Z,98521.59
2022-08-04T17:36:44.085Z,98534.97
2022-08-04T17:39:34.936Z,98528.78
2022-08-04T17:42:50.801Z,98535.56
2022-08-04T17:45:53.024Z,98527.66
2022-08-04T17:48:42.491Z,98529.66
2022-08-04T17:52:05.048Z,98523.28
2022-08-04T17:55:02.976Z,98527.81
2022-08-04T17:57:52.085Z,98528.00
2022-08-04T18:00:38.804Z,98530.00
2022-08-04T18:03:29.893Z,98536.84
2022-08-04T18:06:15.821Z,98533.75
2022-08-04T18:09:22.822Z,98538.88
2022-08-04T18:12:14.862Z,98537.00
2022-08-04T18:15:06.061Z,98535.47
2022-08-04T18:18:22.048Z,98535.47
2022-08-04T18:21:03.415Z,98534.97
2022-08-04T18:23:52.446Z,98540.75
2022-08-04T18:26:39.172Z,98538.72
2022-08-04T18:29:31.192Z,98536.06
2022-08-04T18:32:20.297Z,98543.25
2022-08-04T18:35:07.625Z,98540.91
2022-08-04T18:38:07.347Z,98550.84
2022-08-04T18:40:57.352Z,98551.47
2022-08-04T18:43:44.002Z,98556.28
2022-08-04T18:46:41.627Z,98558.75
2022-08-04T18:50:58.687Z,98552.69
2022-08-04T18:52:45.203Z,98565.91
2022-08-04T18:55:55.758Z,98562.66
2022-08-04T18:58:37.299Z,98571.50
2022-08-04T19:01:29.639Z,98566.38
2022-08-04T19:04:33.888Z,98569.63
2022-08-04T19:07:28.732Z,98563.59
2022-08-04T19:10:26.817Z,98562.66
2022-08-04T19:13:18.567Z,98575.06
2022-08-04T19:16:11.518Z,98568.25
2022-08-04T19:19:06.537Z,98571.31
2022-08-04T19:22:00.802Z,98572.59
2022-08-04T19:24:48.964Z,98574.63
2022-08-04T19:30:42.961Z,98577.72
2022-08-04T19:36:35.609Z,98567.75
2022-08-04T19:39:21.628Z,98576.00
2022-08-04T19:42:07.381Z,98571.81
2022-08-04T19:44:53.134Z,98569.16
2022-08-04T19:48:13.047Z,98574.75
2022-08-04T19:50:44.048Z,98580.53
2022-08-04T19:53:37.368Z,98575.09
2022-08-04T19:56:25.622Z,98581.16
2022-08-04T19:59:12.066Z,98585.34
2022-08-04T20:01:57.806Z,98579.75
2022-08-04T20:04:43.087Z,98578.22
2022-08-04T20:07:30.191Z,98580.69
2022-08-04T20:10:17.676Z,98576.50
2022-08-04T20:13:10.362Z,98575.75
2022-08-04T20:15:58.202Z,98579.00
2022-08-04T20:18:55.634Z,98579.13
2022-08-04T20:21:55.004Z,98582.41
2022-08-04T20:24:47.969Z,98581.28
2022-08-04T20:27:59.647Z,98586.59
2022-08-04T20:30:47.575Z,98584.25
2022-08-04T20:33:34.268Z,98579.13
2022-08-04T20:36:22.772Z,98578.81
2022-08-04T20:39:09.633Z,98577.28
2022-08-04T20:41:55.282Z,98574.16
2022-08-04T20:44:42.176Z,98578.19
2022-08-04T20:47:35.287Z,98571.06
2022-08-04T20:50:29.706Z,98580.69
2022-08-04T20:53:46.726Z,98572.00
2022-08-04T20:56:31.984Z,98578.03
2022-08-04T20:59:17.740Z,98575.25
2022-08-04T21:02:07.059Z,98580.53
2022-08-04T21:05:02.196Z,98569.34
2022-08-04T21:07:48.866Z,98576.66
2022-08-04T21:10:34.263Z,98576.66
2022-08-04T21:13:20.470Z,98572.28
2022-08-04T21:16:07.749Z,98577.88
2022-08-04T21:18:53.140Z,98576.31
2022-08-04T21:21:38.345Z,98577.09
2022-08-04T21:24:26.451Z,98576.31
2022-08-04T21:27:12.100Z,98573.22
2022-08-04T21:29:57.990Z,98584.41
2022-08-04T21:32:45.165Z,98574.75
2022-08-04T21:35:37.752Z,98574.75
2022-08-04T21:38:27.959Z,98584.41
2022-08-04T21:41:31.338Z,98570.88
2022-08-04T21:44:17.496Z,98575.25
2022-08-04T21:47:04.866Z,98578.03
2022-08-04T21:49:59.103Z,98570.13
2022-08-04T21:52:46.420Z,98573.22
2022-08-04T21:56:04.823Z,98572.13
2022-08-04T21:58:38.243Z,98568.88
2022-08-04T22:01:51.937Z,98570.13
2022-08-04T22:04:35.587Z,98570.13
2022-08-04T22:07:23.114Z,98567.31
2022-08-04T22:10:09.141Z,98566.09
2022-08-04T22:12:54.391Z,98565.28
2022-08-04T22:16:04.735Z,98564.53
2022-08-04T22:18:45.586Z,98560.66
2022-08-04T22:21:33.266Z,98571.38
2022-08-04T22:24:24.787Z,98572.59
2022-08-04T22:27:36.410Z,98572.91
2022-08-04T22:30:23.637Z,98571.38
2022-08-04T22:33:09.827Z,98567.00
2022-08-04T22:35:55.566Z,98563.91
2022-08-04T22:38:50.115Z,98561.09
2022-08-04T22:41:48.682Z,98555.69
2022-08-04T22:44:34.536Z,98556.47
2022-08-04T22:47:23.927Z,98552.91
2022-08-04T22:50:27.652Z,98555.19
2022-08-04T22:53:17.932Z,98561.59
2022-08-04T22:56:10.486Z,98559.25
2022-08-04T22:58:56.294Z,98551.81
2022-08-04T23:02:00.121Z,98553.81
2022-08-04T23:04:47.492Z,98549.78
2022-08-04T23:07:47.624Z,98551.00
2022-08-04T23:10:35.370Z,98547.44
2022-08-04T23:13:20.716Z,98547.00
2022-08-04T23:16:09.877Z,98543.88
2022-08-04T23:18:55.659Z,98546.69
2022-08-04T23:21:47.430Z,98554.28
2022-08-04T23:24:33.720Z,98555.50
2022-08-04T23:27:19.740Z,98549.16
2022-08-04T23:30:06.142Z,98546.38
2022-08-04T23:32:53.316Z,98549.16
2022-08-04T23:35:38.513Z,98541.22
2022-08-04T23:38:30.415Z,98539.53
2022-08-04T23:41:18.731Z,98531.94
2022-08-04T23:44:05.846Z,98529.91
2022-08-04T23:47:02.055Z,98532.84
2022-08-04T23:49:47.574Z,98528.03
2022-08-04T23:52:32.935Z,98528.53
2022-08-04T23:55:21.391Z,98533.16
2022-08-04T23:58:19.140Z,98534.88
